Time;durP1;ratioP1;P1;durP2;ratioP2;P2;SDS_P1;SDS_P2;PMS_P1;PMS_P2;Temp;Humidity;BMP_temperature;BMP_pressure;BME280_temperature;BME280_humidity;BME280_pressure;Samples;Min_cycle;Max_cycle;Signal;HPM_P1;HPM_P2
2024/02/05 00:02:31;;;;;;;2.17;0.90;;;;;;;;;;4947108;29;20218;-90
2024/02/05 00:05:37;;;;;;;4.63;0.95;;;;;;;;;;4928453;29;20227;-90
2024/02/05 00:08:43;;;;;;;1.70;0.90;;;;;;;;;;4943312;29;20211;-89
2024/02/05 00:11:48;;;;;;;1.92;1.02;;;;;;;;;;4948566;29;20223;-90
2024/02/05 00:14:54;;;;;;;2.40;0.90;;;;;;;;;;4946614;28;20194;-89
2024/02/05 00:18:01;;;;;;;1.38;1.00;;;;;;;;;;4931428;29;20199;-90
2024/02/05 00:21:34;;;;;;;2.85;0.95;;;;;;;;;;5123506;27;20603;-89
2024/02/05 00:24:39;;;;;;;1.00;0.90;;;;;;;;;;5123493;28;20193;-89
2024/02/05 00:27:44;;;;;;;2.25;1.13;;;;;;;;;;5122680;28;20255;-91
2024/02/05 00:30:50;;;;;;;1.27;1.00;;;;;;;;;;5123050;28;20224;-89
2024/02/05 00:33:55;;;;;;;1.80;0.80;;;;;;;;;;5123390;28;20196;-91
2024/02/05 00:37:01;;;;;;;1.73;0.90;;;;;;;;;;5122875;28;20271;-90
2024/02/05 00:40:08;;;;;;;3.78;1.42;;;;;;;;;;5109870;28;20248;-89
2024/02/05 00:43:14;;;;;;;3.20;1.02;;;;;;;;;;5121412;28;20220;-89
2024/02/05 00:46:22;;;;;;;2.58;1.35;;;;;;;;;;5122110;28;20185;-90
2024/02/05 00:49:28;;;;;;;1.65;1.10;;;;;;;;;;5124853;28;20188;-89
2024/02/05 00:52:35;;;;;;;2.05;1.10;;;;;;;;;;5121494;28;20213;-90
2024/02/05 00:55:41;;;;;;;5.50;1.60;;;;;;;;;;5122334;28;20553;-90
2024/02/05 00:58:48;;;;;;;2.80;1.48;;;;;;;;;;5108789;28;20319;-90
2024/02/05 01:01:53;;;;;;;3.33;1.13;;;;;;;;;;5114369;28;20668;-89
2024/02/05 01:04:58;;;;;;;5.72;1.38;;;;;;;;;;5112906;28;20201;-90
2024/02/05 01:08:05;;;;;;;2.80;1.30;;;;;;;;;;5100726;28;20210;-90
2024/02/05 01:11:11;;;;;;;2.58;1.10;;;;;;;;;;5101651;28;20554;-89
2024/02/05 01:14:16;;;;;;;4.03;1.20;;;;;;;;;;5101788;28;20262;-91
2024/02/05 01:17:22;;;;;;;3.53;1.40;;;;;;;;;;5111044;28;20205;-89
2024/02/05 01:20:27;;;;;;;4.78;1.48;;;;;;;;;;5122587;28;20764;-89
2024/02/05 01:23:35;;;;;;;3.78;1.33;;;;;;;;;;5121542;28;20193;-91
2024/02/05 01:26:39;;;;;;;3.42;1.35;;;;;;;;;;5121533;28;20213;-90
2024/02/05 01:29:45;;;;;;;3.30;1.40;;;;;;;;;;5113980;28;20209;-88
2024/02/05 01:32:51;;;;;;;2.47;1.10;;;;;;;;;;5086691;28;20182;-90
2024/02/05 01:35:56;;;;;;;2.90;1.38;;;;;;;;;;5087116;28;20237;-89
2024/02/05 01:39:02;;;;;;;3.20;1.42;;;;;;;;;;5099878;28;20201;-91
2024/02/05 01:42:08;;;;;;;5.57;1.55;;;;;;;;;;5096562;28;20208;-90
2024/02/05 01:45:13;;;;;;;3.33;1.50;;;;;;;;;;5105554;28;20251;-90
2024/02/05 01:48:20;;;;;;;2.63;1.00;;;;;;;;;;5106159;28;20194;-88
2024/02/05 01:51:26;;;;;;;3.45;1.38;;;;;;;;;;5107110;28;20173;-89
2024/02/05 01:54:34;;;;;;;1.77;1.20;;;;;;;;;;5105793;28;20379;-88
2024/02/05 01:57:39;;;;;;;3.78;1.33;;;;;;;;;;5107972;28;20641;-90
2024/02/05 02:00:45;;;;;;;3.08;1.23;;;;;;;;;;5105805;28;20209;-88
2024/02/05 02:03:51;;;;;;;2.65;1.30;;;;;;;;;;5105591;28;20190;-90
2024/02/05 02:06:57;;;;;;;2.88;1.08;;;;;;;;;;5086122;28;20194;-89
2024/02/05 02:10:04;;;;;;;2.33;1.20;;;;;;;;;;5092360;28;20216;-89
2024/02/05 02:13:09;;;;;;;2.30;1.10;;;;;;;;;;5107086;28;20209;-90
2024/02/05 02:16:16;;;;;;;2.22;1.10;;;;;;;;;;5088010;28;20252;-88
2024/02/05 02:19:32;;;;;;;2.03;1.10;;;;;;;;;;5086701;28;20190;-90
2024/02/05 02:22:42;;;;;;;1.45;0.95;;;;;;;;;;5087708;28;20194;-89
2024/02/05 02:25:51;;;;;;;2.25;1.25;;;;;;;;;;5095186;28;20202;-90
2024/02/05 02:28:57;;;;;;;2.05;0.90;;;;;;;;;;5105709;28;20186;-91
2024/02/05 02:32:06;;;;;;;3.80;1.00;;;;;;;;;;5105496;28;20181;-91
2024/02/05 02:35:14;;;;;;;2.85;0.73;;;;;;;;;;5105149;28;20209;-89
2024/02/05 02:38:20;;;;;;;0.80;0.70;;;;;;;;;;5104440;28;20197;-90
2024/02/05 02:41:28;;;;;;;3.40;0.90;;;;;;;;;;5105953;28;20212;-91
2024/02/05 02:44:34;;;;;;;1.83;0.90;;;;;;;;;;5104247;28;20652;-89
2024/02/05 02:47:39;;;;;;;1.40;0.70;;;;;;;;;;5104794;28;20209;-90
2024/02/05 02:50:44;;;;;;;1.77;0.90;;;;;;;;;;5105108;28;20181;-90
2024/02/05 02:53:49;;;;;;;1.80;0.95;;;;;;;;;;5085706;28;20680;-90
2024/02/05 02:56:55;;;;;;;2.10;0.90;;;;;;;;;;5093578;28;20228;-90
2024/02/05 03:00:00;;;;;;;1.10;0.95;;;;;;;;;;5082591;28;20252;-89
2024/02/05 03:03:06;;;;;;;1.00;0.80;;;;;;;;;;5089735;28;20702;-91
2024/02/05 03:06:11;;;;;;;2.55;0.80;;;;;;;;;;5104268;28;20323;-91
2024/02/05 03:09:16;;;;;;;1.40;0.90;;;;;;;;;;5093518;28;20206;-89
2024/02/05 03:12:23;;;;;;;4.50;1.25;;;;;;;;;;5099836;28;20213;-90
2024/02/05 03:15:28;;;;;;;1.63;0.90;;;;;;;;;;5094086;28;20680;-89
2024/02/05 03:18:33;;;;;;;1.92;0.93;;;;;;;;;;5097748;28;20201;-89
2024/02/05 03:21:38;;;;;;;3.22;1.13;;;;;;;;;;5102821;28;20630;-90
2024/02/05 03:24:43;;;;;;;1.42;0.90;;;;;;;;;;5079913;28;20671;-91
2024/02/05 03:27:50;;;;;;;1.63;0.88;;;;;;;;;;5093755;28;20281;-90
2024/02/05 03:30:55;;;;;;;1.45;0.85;;;;;;;;;;5100773;28;20206;-89
2024/02/05 03:34:00;;;;;;;2.30;1.10;;;;;;;;;;5100277;28;20379;-91
2024/02/05 03:37:05;;;;;;;3.50;1.00;;;;;;;;;;5100356;28;20209;-90
2024/02/05 03:40:11;;;;;;;1.33;0.85;;;;;;;;;;5098266;28;20364;-90
2024/02/05 03:43:17;;;;;;;1.30;0.93;;;;;;;;;;5094638;28;20224;-89
2024/02/05 03:46:22;;;;;;;2.85;1.13;;;;;;;;;;5083330;28;20215;-90
2024/02/05 03:49:28;;;;;;;1.63;1.08;;;;;;;;;;5092430;28;20209;-90
2024/02/05 03:52:33;;;;;;;2.72;1.23;;;;;;;;;;5101737;28;20319;-90
2024/02/05 03:55:38;;;;;;;4.38;1.33;;;;;;;;;;5102482;28;20227;-91
2024/02/05 03:58:45;;;;;;;2.80;1.27;;;;;;;;;;5101773;28;20293;-90
2024/02/05 04:01:51;;;;;;;3.10;1.27;;;;;;;;;;5103358;28;20227;-89
2024/02/05 04:04:57;;;;;;;1.58;1.20;;;;;;;;;;5082543;28;20301;-90
2024/02/05 04:08:01;;;;;;;2.58;1.20;;;;;;;;;;5096932;28;20198;-88
2024/02/05 04:11:06;;;;;;;2.28;1.40;;;;;;;;;;5083212;28;20216;-89
2024/02/05 04:14:12;;;;;;;4.32;1.35;;;;;;;;;;5080836;28;20332;-89
2024/02/05 04:17:17;;;;;;;2.10;1.05;;;;;;;;;;5096243;28;20265;-89
2024/02/05 04:20:23;;;;;;;3.65;1.50;;;;;;;;;;5093094;28;20724;-89
2024/02/05 04:23:28;;;;;;;5.18;1.52;;;;;;;;;;5100686;28;20201;-89
2024/02/05 04:26:33;;;;;;;1.83;1.23;;;;;;;;;;5102498;28;20350;-89
2024/02/05 04:29:40;;;;;;;3.00;1.42;;;;;;;;;;5087720;28;20201;-89
2024/02/05 04:32:45;;;;;;;2.40;1.42;;;;;;;;;;5082326;28;20228;-89
2024/02/05 04:35:50;;;;;;;1.35;1.10;;;;;;;;;;5095783;28;20205;-91
2024/02/05 04:38:55;;;;;;;3.10;1.33;;;;;;;;;;5102449;28;20335;-89
2024/02/05 04:42:00;;;;;;;4.57;1.70;;;;;;;;;;5103332;28;20213;-89
2024/02/05 04:45:08;;;;;;;2.05;1.02;;;;;;;;;;5102113;28;20185;-89
2024/02/05 04:48:19;;;;;;;1.70;1.00;;;;;;;;;;5102988;28;20181;-89
2024/02/05 04:51:24;;;;;;;1.83;1.00;;;;;;;;;;5103523;28;20275;-89
2024/02/05 04:54:30;;;;;;;1.42;1.08;;;;;;;;;;5098392;28;20281;-89
2024/02/05 04:57:35;;;;;;;2.70;1.00;;;;;;;;;;5094255;28;20695;-90
2024/02/05 05:00:42;;;;;;;1.45;0.80;;;;;;;;;;5107119;28;20221;-90
2024/02/05 05:03:47;;;;;;;1.67;0.90;;;;;;;;;;5102421;28;20206;-90
2024/02/05 05:06:52;;;;;;;2.30;1.02;;;;;;;;;;5106508;28;20576;-89
2024/02/05 05:09:58;;;;;;;4.20;1.35;;;;;;;;;;5109354;28;20246;-89
2024/02/05 05:13:05;;;;;;;2.22;0.95;;;;;;;;;;5101144;28;20221;-89
2024/02/05 05:16:12;;;;;;;2.67;1.10;;;;;;;;;;5099186;28;20669;-90
2024/02/05 05:19:17;;;;;;;2.42;1.10;;;;;;;;;;5103546;28;20194;-89
2024/02/05 05:22:23;;;;;;;1.45;1.00;;;;;;;;;;5089244;28;20197;-90
2024/02/05 05:25:28;;;;;;;2.90;1.00;;;;;;;;;;5108330;28;20315;-88
2024/02/05 05:28:34;;;;;;;1.40;0.90;;;;;;;;;;5107984;28;20232;-89
2024/02/05 05:31:40;;;;;;;3.42;1.02;;;;;;;;;;5104883;28;20209;-89
2024/02/05 05:34:45;;;;;;;1.85;1.10;;;;;;;;;;5097931;28;20567;-89
2024/02/05 05:37:50;;;;;;;3.00;1.05;;;;;;;;;;5088720;28;20201;-89
2024/02/05 05:40:55;;;;;;;1.83;0.90;;;;;;;;;;5102293;28;20220;-90
2024/02/05 05:44:02;;;;;;;2.33;0.98;;;;;;;;;;5106710;28;20221;-90
2024/02/05 05:47:09;;;;;;;2.05;1.15;;;;;;;;;;5102976;28;20198;-90
2024/02/05 05:50:15;;;;;;;1.70;1.00;;;;;;;;;;5095316;28;20229;-89
2024/02/05 05:53:21;;;;;;;3.97;0.90;;;;;;;;;;5106166;28;20268;-91
2024/02/05 05:56:28;;;;;;;12.25;2.42;;;;;;;;;;5118861;28;20209;-89
2024/02/05 05:59:33;;;;;;;1.42;0.77;;;;;;;;;;5127167;28;20690;-90
2024/02/05 06:02:40;;;;;;;1.90;0.90;;;;;;;;;;5126707;28;20326;-89
2024/02/05 06:05:47;;;;;;;1.77;0.88;;;;;;;;;;5121184;28;20184;-91
2024/02/05 06:08:52;;;;;;;2.55;1.00;;;;;;;;;;5086543;28;20210;-89
2024/02/05 06:11:57;;;;;;;3.45;1.10;;;;;;;;;;5105473;28;20197;-89
2024/02/05 06:15:02;;;;;;;2.92;1.00;;;;;;;;;;5107946;28;20182;-90
2024/02/05 06:18:09;;;;;;;2.38;1.02;;;;;;;;;;5107433;28;20656;-89
2024/02/05 06:21:17;;;;;;;2.25;0.80;;;;;;;;;;5113229;28;20728;-88
2024/02/05 06:24:23;;;;;;;1.83;0.90;;;;;;;;;;5112969;28;20574;-90
2024/02/05 06:27:29;;;;;;;3.20;1.10;;;;;;;;;;5111804;28;20189;-89
2024/02/05 06:30:43;;;;;;;2.92;0.80;;;;;;;;;;5112578;28;20560;-91
2024/02/05 06:33:50;;;;;;;3.78;0.90;;;;;;;;;;5112369;28;20669;-89
2024/02/05 06:36:56;;;;;;;3.70;1.42;;;;;;;;;;5111891;28;20182;-91
2024/02/05 06:40:05;;;;;;;1.45;0.90;;;;;;;;;;5110468;28;20194;-90
2024/02/05 06:43:17;;;;;;;1.92;0.82;;;;;;;;;;5111301;28;20185;-91
2024/02/05 06:46:23;;;;;;;2.25;1.23;;;;;;;;;;5114016;28;20261;-90
2024/02/05 06:49:33;;;;;;;1.48;0.90;;;;;;;;;;5110374;28;20186;-88
2024/02/05 06:55:57;;;;;;;2.53;1.20;;;;;;;;;;5107395;28;20194;-90
2024/02/05 06:59:02;;;;;;;2.40;0.88;;;;;;;;;;5107799;28;20186;-90
2024/02/05 07:02:09;;;;;;;1.35;0.90;;;;;;;;;;5106711;28;20213;-91
2024/02/05 07:05:18;;;;;;;4.57;1.70;;;;;;;;;;5108503;28;20205;-90
2024/02/05 07:08:25;;;;;;;4.32;1.40;;;;;;;;;;5098525;28;20253;-90
2024/02/05 07:11:30;;;;;;;3.85;1.00;;;;;;;;;;5107928;28;20232;-91
2024/02/05 07:14:35;;;;;;;3.42;1.02;;;;;;;;;;5110223;28;20296;-91
2024/02/05 07:17:43;;;;;;;1.42;0.80;;;;;;;;;;5108062;28;20194;-89
2024/02/05 07:20:51;;;;;;;3.70;1.08;;;;;;;;;;5108644;28;20268;-89
2024/02/05 07:23:56;;;;;;;1.40;0.77;;;;;;;;;;5106825;28;20217;-92
2024/02/05 07:27:02;;;;;;;2.35;0.73;;;;;;;;;;5107041;28;20162;-93
2024/02/05 07:30:08;;;;;;;3.05;0.80;;;;;;;;;;5106683;28;20304;-91
2024/02/05 07:33:15;;;;;;;1.92;1.00;;;;;;;;;;5107326;28;20206;-88
2024/02/05 07:36:23;;;;;;;1.40;0.77;;;;;;;;;;5106756;28;20202;-89
2024/02/05 07:39:28;;;;;;;3.17;0.63;;;;;;;;;;5107448;28;20186;-92
2024/02/05 07:42:35;;;;;;;1.02;0.60;;;;;;;;;;5086600;28;20218;-92
2024/02/05 07:45:40;;;;;;;1.58;0.70;;;;;;;;;;5093481;28;20566;-92
2024/02/05 07:48:46;;;;;;;2.90;0.80;;;;;;;;;;5088980;28;20182;-90
2024/02/05 07:51:54;;;;;;;5.60;1.00;;;;;;;;;;5103993;28;20206;-89
2024/02/05 07:54:59;;;;;;;2.30;0.70;;;;;;;;;;5105478;28;20193;-89
2024/02/05 07:58:05;;;;;;;2.92;0.60;;;;;;;;;;5105244;28;20198;-89
2024/02/05 08:01:10;;;;;;;1.88;0.80;;;;;;;;;;5106485;28;20259;-91
2024/02/05 08:04:16;;;;;;;3.08;1.27;;;;;;;;;;5105303;28;20273;-90
2024/02/05 08:07:22;;;;;;;1.58;0.60;;;;;;;;;;5105062;28;20687;-90
2024/02/05 08:10:27;;;;;;;2.25;0.90;;;;;;;;;;5108564;28;20204;-91
2024/02/05 08:13:33;;;;;;;6.57;1.85;;;;;;;;;;5105088;28;20210;-91
2024/02/05 08:16:38;;;;;;;13.50;2.28;;;;;;;;;;5097782;28;20197;-89
2024/02/05 08:19:46;;;;;;;3.50;0.85;;;;;;;;;;5088929;28;20278;-92
2024/02/05 08:22:53;;;;;;;1.83;0.77;;;;;;;;;;5105640;28;20316;-91
2024/02/05 08:25:58;;;;;;;1.77;0.70;;;;;;;;;;5106356;28;20208;-90
2024/02/05 08:32:23;;;;;;;1.70;0.90;;;;;;;;;;5100390;28;20221;-91
2024/02/05 08:35:31;;;;;;;4.65;1.65;;;;;;;;;;5106230;28;20274;-93
2024/02/05 08:38:42;;;;;;;3.15;1.50;;;;;;;;;;5110308;28;20194;-90
2024/02/05 08:41:48;;;;;;;5.63;0.90;;;;;;;;;;5106345;28;20631;-91
2024/02/05 08:44:54;;;;;;;1.75;0.80;;;;;;;;;;5109075;28;20213;-90
2024/02/05 08:48:02;;;;;;;4.10;0.82;;;;;;;;;;5107559;28;20204;-91
2024/02/05 08:51:12;;;;;;;3.75;0.82;;;;;;;;;;5108975;28;20205;-92
2024/02/05 08:54:19;;;;;;;1.13;0.65;;;;;;;;;;5108874;28;20217;-89
2024/02/05 08:57:24;;;;;;;3.03;0.90;;;;;;;;;;5102866;28;20190;-90
2024/02/05 09:00:30;;;;;;;3.17;1.05;;;;;;;;;;5106495;28;20308;-90
2024/02/05 09:03:35;;;;;;;3.42;1.20;;;;;;;;;;5107256;28;20225;-91
2024/02/05 09:06:40;;;;;;;4.45;1.33;;;;;;;;;;5110426;28;20253;-93
2024/02/05 09:09:52;;;;;;;2.28;1.27;;;;;;;;;;5104008;28;20202;-90
2024/02/05 09:12:58;;;;;;;7.95;1.38;;;;;;;;;;5095117;28;20182;-91
2024/02/05 09:16:03;;;;;;;3.88;1.38;;;;;;;;;;5108290;28;20547;-90
2024/02/05 09:19:09;;;;;;;2.22;1.20;;;;;;;;;;5107932;28;20201;-90
2024/02/05 09:22:18;;;;;;;2.08;1.10;;;;;;;;;;5113182;28;20229;-89
2024/02/05 09:25:28;;;;;;;2.28;1.00;;;;;;;;;;5105781;28;20209;-90
2024/02/05 09:28:37;;;;;;;2.28;0.90;;;;;;;;;;5107482;28;20197;-91
2024/02/05 09:31:45;;;;;;;4.70;1.20;;;;;;;;;;5101766;28;20209;-89
2024/02/05 09:34:50;;;;;;;2.92;1.35;;;;;;;;;;5099651;28;20266;-90
2024/02/05 09:37:56;;;;;;;3.47;1.30;;;;;;;;;;5108721;28;20235;-91
2024/02/05 09:41:06;;;;;;;1.77;0.75;;;;;;;;;;5108584;28;20244;-92
2024/02/05 09:44:14;;;;;;;2.17;1.00;;;;;;;;;;5107970;28;20201;-92
2024/02/05 09:47:21;;;;;;;4.03;1.38;;;;;;;;;;5107524;28;20273;-92
2024/02/05 09:50:28;;;;;;;2.97;1.33;;;;;;;;;;5106249;28;20198;-92
2024/02/05 09:53:34;;;;;;;5.45;1.90;;;;;;;;;;5102904;28;20224;-91
2024/02/05 09:56:41;;;;;;;7.68;1.13;;;;;;;;;;5107336;28;20213;-90
2024/02/05 09:59:48;;;;;;;6.22;1.30;;;;;;;;;;5109241;28;20196;-90
2024/02/05 10:02:56;;;;;;;4.60;1.75;;;;;;;;;;5111759;28;20233;-89
2024/02/05 10:06:03;;;;;;;4.70;1.38;;;;;;;;;;5105964;28;20193;-91
2024/02/05 10:09:10;;;;;;;3.10;1.30;;;;;;;;;;5108696;28;20329;-92
2024/02/05 10:12:17;;;;;;;3.60;1.17;;;;;;;;;;5108635;28;20229;-91
2024/02/05 10:15:25;;;;;;;2.63;1.13;;;;;;;;;;5108472;28;20301;-91
2024/02/05 10:18:31;;;;;;;5.30;1.70;;;;;;;;;;5100521;28;20641;-90
2024/02/05 10:21:37;;;;;;;4.25;1.20;;;;;;;;;;5108841;28;20211;-91
2024/02/05 10:24:43;;;;;;;6.68;1.40;;;;;;;;;;5103791;28;20225;-93
2024/02/05 10:27:51;;;;;;;10.55;1.60;;;;;;;;;;5108920;28;20280;-91
2024/02/05 10:31:05;;;;;;;8.75;1.95;;;;;;;;;;5105688;28;20316;-90
2024/02/05 10:34:15;;;;;;;5.78;1.40;;;;;;;;;;5108797;28;20185;-91
2024/02/05 10:37:23;;;;;;;4.88;1.73;;;;;;;;;;5103530;28;20201;-92
2024/02/05 10:40:35;;;;;;;6.63;1.63;;;;;;;;;;5103675;28;20276;-93
2024/02/05 10:43:43;;;;;;;6.55;2.58;;;;;;;;;;5108923;28;20283;-90
2024/02/05 10:46:50;;;;;;;4.85;1.40;;;;;;;;;;5110220;28;20201;-91
2024/02/05 10:49:58;;;;;;;3.85;1.30;;;;;;;;;;5105231;28;20216;-92
2024/02/05 10:53:04;;;;;;;7.15;1.60;;;;;;;;;;5110923;28;20240;-90
2024/02/05 10:56:10;;;;;;;5.55;1.20;;;;;;;;;;5094958;28;20204;-91
2024/02/05 10:59:17;;;;;;;4.13;1.15;;;;;;;;;;5106298;28;20215;-88
2024/02/05 11:02:24;;;;;;;5.13;1.20;;;;;;;;;;5107679;28;20208;-89
2024/02/05 11:05:34;;;;;;;4.82;1.83;;;;;;;;;;5107684;28;20182;-91
2024/02/05 11:08:43;;;;;;;8.15;1.40;;;;;;;;;;5095920;28;20186;-89
2024/02/05 11:11:49;;;;;;;4.50;1.10;;;;;;;;;;5100156;28;20194;-92
2024/02/05 11:15:04;;;;;;;10.32;1.50;;;;;;;;;;5103783;28;20190;-88
2024/02/05 11:18:22;;;;;;;11.43;1.10;;;;;;;;;;5104991;28;20236;-89
2024/02/05 11:21:29;;;;;;;2.83;1.00;;;;;;;;;;5105720;28;20213;-91
2024/02/05 11:24:35;;;;;;;6.05;1.35;;;;;;;;;;5090864;28;20173;-92
2024/02/05 11:27:41;;;;;;;4.78;1.33;;;;;;;;;;5096286;28;20189;-90
2024/02/05 11:30:48;;;;;;;9.57;1.42;;;;;;;;;;5094394;28;20181;-90
2024/02/05 11:33:58;;;;;;;5.20;1.40;;;;;;;;;;5099474;28;20240;-90
2024/02/05 11:37:10;;;;;;;5.50;1.20;;;;;;;;;;5106254;28;20233;-89
2024/02/05 11:40:20;;;;;;;2.78;0.90;;;;;;;;;;5107899;28;20198;-93
2024/02/05 11:43:29;;;;;;;3.58;1.25;;;;;;;;;;5102762;28;20232;-91
2024/02/05 11:46:37;;;;;;;10.60;2.55;;;;;;;;;;5107315;28;20201;-90
2024/02/05 11:49:47;;;;;;;6.45;1.45;;;;;;;;;;5108238;28;20183;-91
2024/02/05 11:52:52;;;;;;;2.40;1.20;;;;;;;;;;5105410;28;20197;-91
2024/02/05 11:55:57;;;;;;;5.47;1.55;;;;;;;;;;5104197;28;20173;-90
2024/02/05 11:59:08;;;;;;;5.65;1.90;;;;;;;;;;5092298;28;20297;-92
2024/02/05 12:02:18;;;;;;;3.97;1.60;;;;;;;;;;5101905;28;20223;-92
2024/02/05 12:05:24;;;;;;;5.38;1.60;;;;;;;;;;5108799;28;20192;-91
2024/02/05 12:08:35;;;;;;;7.20;1.50;;;;;;;;;;5106688;28;20227;-88
2024/02/05 12:11:48;;;;;;;7.50;3.10;;;;;;;;;;5104944;28;20197;-90
2024/02/05 12:14:54;;;;;;;6.28;1.52;;;;;;;;;;5105684;28;20201;-90
2024/02/05 12:18:05;;;;;;;5.70;1.98;;;;;;;;;;5103328;28;20209;-92
2024/02/05 12:21:13;;;;;;;7.07;1.83;;;;;;;;;;5103127;28;20233;-89
2024/02/05 12:24:20;;;;;;;7.18;1.30;;;;;;;;;;5108804;28;20225;-93
2024/02/05 12:27:30;;;;;;;5.68;2.17;;;;;;;;;;5087522;28;20576;-91
2024/02/05 12:30:35;;;;;;;4.13;1.55;;;;;;;;;;5095564;28;20210;-91
2024/02/05 12:33:44;;;;;;;3.88;1.40;;;;;;;;;;5108346;28;20269;-90
2024/02/05 12:36:52;;;;;;;5.03;1.40;;;;;;;;;;5109692;28;20197;-91
2024/02/05 12:39:57;;;;;;;6.78;1.48;;;;;;;;;;5106829;28;20201;-91
2024/02/05 12:43:03;;;;;;;9.82;1.73;;;;;;;;;;5103980;28;20217;-91
2024/02/05 12:46:09;;;;;;;8.18;1.80;;;;;;;;;;5105635;28;20181;-92
2024/02/05 12:49:16;;;;;;;9.73;2.00;;;;;;;;;;5101230;28;20194;-91
2024/02/05 12:52:22;;;;;;;6.40;2.08;;;;;;;;;;5105753;28;20198;-91
2024/02/05 12:55:29;;;;;;;6.30;1.42;;;;;;;;;;5109209;28;20197;-92
2024/02/05 12:58:35;;;;;;;3.72;1.30;;;;;;;;;;5097090;28;20217;-92
2024/02/05 13:01:42;;;;;;;8.00;1.30;;;;;;;;;;5105894;28;20165;-92
2024/02/05 13:04:50;;;;;;;3.42;1.02;;;;;;;;;;5110392;28;20197;-92
2024/02/05 13:07:58;;;;;;;6.97;1.25;;;;;;;;;;5107938;28;20648;-91
2024/02/05 13:11:04;;;;;;;3.20;1.20;;;;;;;;;;5110626;28;20261;-93
2024/02/05 13:14:17;;;;;;;3.00;1.33;;;;;;;;;;5108277;28;20216;-91
2024/02/05 13:17:23;;;;;;;4.65;1.38;;;;;;;;;;5108331;28;20237;-91
2024/02/05 13:20:50;;;;;;;8.90;2.40;;;;;;;;;;5109959;28;20213;-90
2024/02/05 13:23:56;;;;;;;6.57;1.90;;;;;;;;;;5109555;28;20268;-93
2024/02/05 13:27:01;;;;;;;7.85;1.50;;;;;;;;;;5110923;28;20675;-90
2024/02/05 13:30:09;;;;;;;13.18;2.35;;;;;;;;;;5110926;28;20256;-90
2024/02/05 13:33:16;;;;;;;8.80;1.70;;;;;;;;;;5110013;28;20196;-90
2024/02/05 13:36:24;;;;;;;4.72;1.40;;;;;;;;;;5111119;28;20201;-92
2024/02/05 13:39:31;;;;;;;5.05;1.60;;;;;;;;;;5113748;28;20197;-91
2024/02/05 13:42:41;;;;;;;10.18;1.25;;;;;;;;;;5110817;28;20343;-91
2024/02/05 13:45:50;;;;;;;4.32;1.30;;;;;;;;;;5109390;28;20194;-89
2024/02/05 13:48:56;;;;;;;8.48;2.40;;;;;;;;;;5108929;28;20206;-91
2024/02/05 13:52:03;;;;;;;8.52;2.30;;;;;;;;;;5110999;28;20204;-92
2024/02/05 13:55:10;;;;;;;5.05;1.95;;;;;;;;;;5110443;28;20205;-94
2024/02/05 13:58:15;;;;;;;5.70;1.38;;;;;;;;;;5109246;28;20236;-92
2024/02/05 14:01:21;;;;;;;10.35;1.20;;;;;;;;;;5108775;28;20188;-90
2024/02/05 14:04:29;;;;;;;5.82;1.30;;;;;;;;;;5108094;28;20259;-90
2024/02/05 14:07:36;;;;;;;3.22;1.35;;;;;;;;;;5108433;28;20178;-90
2024/02/05 14:10:41;;;;;;;9.07;1.98;;;;;;;;;;5109011;28;20324;-91
2024/02/05 14:13:47;;;;;;;6.93;1.30;;;;;;;;;;5107803;28;20178;-91
2024/02/05 14:16:53;;;;;;;6.47;1.75;;;;;;;;;;5106125;28;20270;-89
2024/02/05 14:19:58;;;;;;;5.57;1.50;;;;;;;;;;5086278;28;20214;-92
2024/02/05 14:23:04;;;;;;;8.02;1.50;;;;;;;;;;5098444;28;20182;-89
2024/02/05 14:29:49;;;;;;;6.20;1.30;;;;;;;;;;5087584;28;20234;-92
2024/02/05 14:32:54;;;;;;;12.35;1.92;;;;;;;;;;5087354;28;20202;-92
2024/02/05 14:35:59;;;;;;;8.05;1.30;;;;;;;;;;5087451;28;20221;-90
2024/02/05 14:39:06;;;;;;;7.03;1.58;;;;;;;;;;5100263;28;20278;-92
2024/02/05 14:42:11;;;;;;;8.30;1.80;;;;;;;;;;5100822;28;20203;-91
2024/02/05 14:45:16;;;;;;;7.32;1.60;;;;;;;;;;5096399;28;20217;-90
2024/02/05 14:48:27;;;;;;;7.72;1.67;;;;;;;;;;5087746;28;20166;-89
2024/02/05 14:51:33;;;;;;;6.22;1.60;;;;;;;;;;5106998;28;20193;-90
2024/02/05 14:54:40;;;;;;;5.70;1.35;;;;;;;;;;5107906;28;20198;-90
2024/02/05 14:57:45;;;;;;;13.68;1.63;;;;;;;;;;5107583;28;20198;-92
2024/02/05 15:00:51;;;;;;;3.15;1.10;;;;;;;;;;5105788;28;20181;-91
2024/02/05 15:03:57;;;;;;;8.15;1.70;;;;;;;;;;5108173;28;20202;-92
2024/02/05 15:07:02;;;;;;;8.50;1.55;;;;;;;;;;5107486;28;20223;-90
2024/02/05 15:10:15;;;;;;;7.72;2.30;;;;;;;;;;5107547;28;20194;-92
2024/02/05 15:13:21;;;;;;;3.63;1.75;;;;;;;;;;5096003;28;20709;-91
2024/02/05 15:16:27;;;;;;;4.75;1.77;;;;;;;;;;5109206;28;20198;-93
2024/02/05 15:19:32;;;;;;;9.73;2.17;;;;;;;;;;5107470;28;20223;-92
2024/02/05 15:22:38;;;;;;;10.98;2.15;;;;;;;;;;5107456;28;20235;-92
2024/02/05 15:25:46;;;;;;;7.85;1.83;;;;;;;;;;5106768;28;20262;-92
2024/02/05 15:28:51;;;;;;;4.30;1.63;;;;;;;;;;5108564;28;20266;-94
2024/02/05 15:32:03;;;;;;;7.82;2.33;;;;;;;;;;5106296;28;20185;-90
2024/02/05 15:35:10;;;;;;;12.40;2.38;;;;;;;;;;5108645;28;20181;-93
2024/02/05 15:38:15;;;;;;;14.75;2.08;;;;;;;;;;5109283;28;20523;-91
2024/02/05 15:41:23;;;;;;;11.00;1.98;;;;;;;;;;5108383;28;20198;-90
2024/02/05 15:44:31;;;;;;;3.33;1.42;;;;;;;;;;5108064;28;20286;-91
2024/02/05 15:47:38;;;;;;;5.82;1.83;;;;;;;;;;5096750;28;20252;-91
2024/02/05 15:50:44;;;;;;;6.03;2.03;;;;;;;;;;5108789;28;20185;-89
2024/02/05 15:53:52;;;;;;;9.70;2.33;;;;;;;;;;5107510;28;20387;-91
2024/02/05 15:57:00;;;;;;;10.32;2.50;;;;;;;;;;5110958;28;20205;-91
2024/02/05 16:00:08;;;;;;;7.72;2.28;;;;;;;;;;5100639;28;20189;-92
2024/02/05 16:03:14;;;;;;;7.18;2.30;;;;;;;;;;5108869;28;20220;-92
2024/02/05 16:06:19;;;;;;;14.57;2.47;;;;;;;;;;5109909;28;20197;-91
2024/02/05 16:09:25;;;;;;;10.50;2.28;;;;;;;;;;5107705;28;20205;-89
2024/02/05 16:12:32;;;;;;;12.45;3.20;;;;;;;;;;5087334;28;20545;-91
2024/02/05 16:15:38;;;;;;;9.07;2.38;;;;;;;;;;5086780;28;20640;-90
2024/02/05 16:18:43;;;;;;;5.28;1.73;;;;;;;;;;5097397;28;20188;-91
2024/02/05 16:21:49;;;;;;;8.00;2.30;;;;;;;;;;5107522;28;20327;-91
2024/02/05 16:24:55;;;;;;;9.45;2.80;;;;;;;;;;5106088;28;20225;-91
2024/02/05 16:28:01;;;;;;;8.50;3.10;;;;;;;;;;5100624;28;20637;-90
2024/02/05 16:31:07;;;;;;;13.60;3.22;;;;;;;;;;5088118;28;20174;-92
2024/02/05 16:34:13;;;;;;;11.25;3.45;;;;;;;;;;5102478;28;20580;-90
2024/02/05 16:37:19;;;;;;;14.38;4.88;;;;;;;;;;5110011;28;20182;-90
2024/02/05 16:40:26;;;;;;;18.88;5.07;;;;;;;;;;5088664;28;20195;-92
2024/02/05 16:43:34;;;;;;;13.45;5.07;;;;;;;;;;5086082;28;20551;-90
2024/02/05 16:46:40;;;;;;;43.15;17.63;;;;;;;;;;5085166;28;20249;-93
2024/02/05 16:49:46;;;;;;;15.68;5.60;;;;;;;;;;5086402;28;20186;-90
2024/02/05 16:52:53;;;;;;;14.60;4.65;;;;;;;;;;5085282;28;20183;-92
2024/02/05 17:04:11;;;;;;;19.30;7.20;;;;;;;;;;5089733;28;20682;-92
2024/02/05 17:07:28;;;;;;;21.95;5.85;;;;;;;;;;5091315;28;20186;-91
2024/02/05 17:10:48;;;;;;;19.50;6.00;;;;;;;;;;5090372;28;20668;-92
2024/02/05 17:13:58;;;;;;;17.10;5.60;;;;;;;;;;5093452;28;20194;-90
2024/02/05 17:17:15;;;;;;;14.57;4.97;;;;;;;;;;5100709;28;20189;-91
2024/02/05 17:20:29;;;;;;;13.85;4.82;;;;;;;;;;5094746;28;20225;-90
2024/02/05 17:23:35;;;;;;;11.70;4.03;;;;;;;;;;5086989;28;20240;-91
2024/02/05 17:26:41;;;;;;;9.95;3.42;;;;;;;;;;5088631;28;20673;-91
2024/02/05 17:29:47;;;;;;;11.70;5.43;;;;;;;;;;5097016;28;20562;-90
2024/02/05 17:32:52;;;;;;;16.30;5.15;;;;;;;;;;5108958;28;20170;-91
2024/02/05 17:35:59;;;;;;;13.02;4.75;;;;;;;;;;5104999;28;20651;-88
2024/02/05 17:39:05;;;;;;;11.38;4.85;;;;;;;;;;5097735;28;20232;-88
2024/02/05 17:45:37;;;;;;;11.68;4.63;;;;;;;;;;5085155;28;20218;-88
2024/02/05 17:48:44;;;;;;;13.13;4.72;;;;;;;;;;5083334;28;20233;-90
2024/02/05 17:51:53;;;;;;;10.95;5.05;;;;;;;;;;5086181;28;20202;-90
2024/02/05 17:55:07;;;;;;;14.38;5.35;;;;;;;;;;5085008;28;20689;-91
2024/02/05 17:58:15;;;;;;;16.75;5.63;;;;;;;;;;5086629;28;20265;-90
2024/02/05 18:01:30;;;;;;;15.93;6.47;;;;;;;;;;5088242;28;20174;-91
2024/02/05 18:04:38;;;;;;;13.73;5.95;;;;;;;;;;5085681;28;20226;-91
2024/02/05 18:07:45;;;;;;;19.27;7.50;;;;;;;;;;5084944;28;20183;-91
2024/02/05 18:10:50;;;;;;;13.38;7.00;;;;;;;;;;5104761;28;20185;-91
2024/02/05 18:13:55;;;;;;;13.02;6.40;;;;;;;;;;5090704;28;20586;-92
2024/02/05 18:17:00;;;;;;;21.60;6.15;;;;;;;;;;5083965;28;20265;-91
2024/02/05 18:20:06;;;;;;;14.23;6.68;;;;;;;;;;5100708;28;20216;-89
2024/02/05 18:23:13;;;;;;;13.07;5.93;;;;;;;;;;5096547;28;20674;-93
2024/02/05 18:26:18;;;;;;;17.67;7.65;;;;;;;;;;5085766;28;20307;-89
2024/02/05 18:29:23;;;;;;;15.27;5.65;;;;;;;;;;5090514;28;20237;-90
2024/02/05 18:32:29;;;;;;;14.23;6.20;;;;;;;;;;5106965;28;20185;-89
2024/02/05 18:35:35;;;;;;;23.13;8.88;;;;;;;;;;5106148;28;20225;-89
2024/02/05 18:38:41;;;;;;;23.67;8.98;;;;;;;;;;5106700;28;20275;-90
2024/02/05 18:41:48;;;;;;;22.17;7.97;;;;;;;;;;5109205;28;20189;-88
2024/02/05 18:44:53;;;;;;;27.98;8.48;;;;;;;;;;5107725;28;20202;-89
2024/02/05 18:47:59;;;;;;;33.20;11.73;;;;;;;;;;5098386;28;20214;-90
2024/02/05 18:51:04;;;;;;;34.78;13.80;;;;;;;;;;5087372;28;20195;-90
2024/02/05 18:54:15;;;;;;;20.58;9.93;;;;;;;;;;5099269;28;20201;-90
2024/02/05 18:57:21;;;;;;;19.30;7.88;;;;;;;;;;5106745;28;20279;-88
2024/02/05 19:00:31;;;;;;;17.60;7.23;;;;;;;;;;5106291;28;20203;-88